sensor_id;sensor_type;location;lat;lon;timestamp;P1;durP1;ratioP1;P2;durP2;ratioP2
38629;SDS011;24384;51.988;4.644;2022-07-30T00:00:14;13.13;;;4.22;;
38629;SDS011;24384;51.988;4.644;2022-07-30T00:02:40;8.65;;;4.18;;
38629;SDS011;24384;51.988;4.644;2022-07-30T00:05:06;11.82;;;4.28;;
38629;SDS011;24384;51.988;4.644;2022-07-30T00:07:32;15.25;;;5.00;;
38629;SDS011;24384;51.988;4.644;2022-07-30T00:09:59;7.60;;;4.65;;
38629;SDS011;24384;51.988;4.644;2022-07-30T00:12:25;9.70;;;4.72;;
38629;SDS011;24384;51.988;4.644;2022-07-30T00:14:50;9.15;;;4.40;;
38629;SDS011;24384;51.988;4.644;2022-07-30T00:17:16;6.95;;;4.25;;
38629;SDS011;24384;51.988;4.644;2022-07-30T00:19:41;5.93;;;4.25;;
38629;SDS011;24384;51.988;4.644;2022-07-30T00:22:06;9.23;;;4.50;;
38629;SDS011;24384;51.988;4.644;2022-07-30T00:24:32;6.85;;;4.53;;
38629;SDS011;24384;51.988;4.644;2022-07-30T00:26:57;12.15;;;4.22;;
38629;SDS011;24384;51.988;4.644;2022-07-30T00:29:23;10.88;;;4.82;;
38629;SDS011;24384;51.988;4.644;2022-07-30T00:31:49;10.43;;;4.80;;
38629;SDS011;24384;51.988;4.644;2022-07-30T00:34:14;7.70;;;4.60;;
38629;SDS011;24384;51.988;4.644;2022-07-30T00:36:40;9.45;;;4.50;;
38629;SDS011;24384;51.988;4.644;2022-07-30T00:39:05;10.05;;;5.55;;
38629;SDS011;24384;51.988;4.644;2022-07-30T00:41:31;16.17;;;4.90;;
38629;SDS011;24384;51.988;4.644;2022-07-30T00:43:57;8.05;;;4.22;;
38629;SDS011;24384;51.988;4.644;2022-07-30T00:46:22;8.50;;;4.60;;
38629;SDS011;24384;51.988;4.644;2022-07-30T00:48:47;9.90;;;4.65;;
38629;SDS011;24384;51.988;4.644;2022-07-30T00:51:13;12.63;;;4.47;;
38629;SDS011;24384;51.988;4.644;2022-07-30T00:53:38;11.02;;;5.03;;
38629;SDS011;24384;51.988;4.644;2022-07-30T00:56:04;9.23;;;4.90;;
38629;SDS011;24384;51.988;4.644;2022-07-30T00:58:30;8.30;;;5.43;;
38629;SDS011;24384;51.988;4.644;2022-07-30T01:00:56;8.55;;;4.70;;
38629;SDS011;24384;51.988;4.644;2022-07-30T01:03:21;10.65;;;4.50;;
38629;SDS011;24384;51.988;4.644;2022-07-30T01:05:47;10.15;;;4.30;;
38629;SDS011;24384;51.988;4.644;2022-07-30T01:08:12;12.18;;;4.97;;
38629;SDS011;24384;51.988;4.644;2022-07-30T01:10:38;12.10;;;4.78;;
38629;SDS011;24384;51.988;4.644;2022-07-30T01:13:04;11.85;;;5.03;;
38629;SDS011;24384;51.988;4.644;2022-07-30T01:15:30;8.73;;;4.82;;
38629;SDS011;24384;51.988;4.644;2022-07-30T01:17:56;11.00;;;5.18;;
38629;SDS011;24384;51.988;4.644;2022-07-30T01:23:32;17.48;;;5.57;;
38629;SDS011;24384;51.988;4.644;2022-07-30T01:26:09;12.27;;;6.00;;
38629;SDS011;24384;51.988;4.644;2022-07-30T01:28:39;12.95;;;5.53;;
38629;SDS011;24384;51.988;4.644;2022-07-30T01:31:14;9.75;;;5.50;;
38629;SDS011;24384;51.988;4.644;2022-07-30T01:33:42;14.18;;;5.50;;
38629;SDS011;24384;51.988;4.644;2022-07-30T01:36:11;12.02;;;6.07;;
38629;SDS011;24384;51.988;4.644;2022-07-30T01:38:39;7.95;;;5.75;;
38629;SDS011;24384;51.988;4.644;2022-07-30T01:41:08;11.48;;;5.78;;
38629;SDS011;24384;51.988;4.644;2022-07-30T01:43:34;11.10;;;6.07;;
38629;SDS011;24384;51.988;4.644;2022-07-30T01:46:01;8.85;;;4.78;;
38629;SDS011;24384;51.988;4.644;2022-07-30T01:48:28;10.82;;;5.15;;
38629;SDS011;24384;51.988;4.644;2022-07-30T01:50:56;10.57;;;5.47;;
38629;SDS011;24384;51.988;4.644;2022-07-30T01:53:25;14.30;;;5.75;;
38629;SDS011;24384;51.988;4.644;2022-07-30T01:55:53;15.07;;;5.53;;
38629;SDS011;24384;51.988;4.644;2022-07-30T01:58:20;7.93;;;5.53;;
38629;SDS011;24384;51.988;4.644;2022-07-30T02:00:48;7.43;;;4.10;;
38629;SDS011;24384;51.988;4.644;2022-07-30T02:03:15;11.32;;;5.18;;
38629;SDS011;24384;51.988;4.644;2022-07-30T02:05:42;7.10;;;4.45;;
38629;SDS011;24384;51.988;4.644;2022-07-30T02:08:15;11.93;;;6.10;;
38629;SDS011;24384;51.988;4.644;2022-07-30T02:14:00;8.75;;;4.72;;
38629;SDS011;24384;51.988;4.644;2022-07-30T02:16:32;8.43;;;4.47;;
38629;SDS011;24384;51.988;4.644;2022-07-30T02:19:06;6.15;;;4.90;;
38629;SDS011;24384;51.988;4.644;2022-07-30T02:21:37;12.88;;;4.68;;
38629;SDS011;24384;51.988;4.644;2022-07-30T02:24:05;6.18;;;2.58;;
38629;SDS011;24384;51.988;4.644;2022-07-30T02:26:36;7.53;;;4.60;;
38629;SDS011;24384;51.988;4.644;2022-07-30T02:29:02;8.02;;;4.70;;
38629;SDS011;24384;51.988;4.644;2022-07-30T02:31:30;9.20;;;4.90;;
38629;SDS011;24384;51.988;4.644;2022-07-30T02:33:58;11.07;;;5.18;;
38629;SDS011;24384;51.988;4.644;2022-07-30T02:36:27;7.20;;;5.63;;
38629;SDS011;24384;51.988;4.644;2022-07-30T02:38:53;12.20;;;5.65;;
38629;SDS011;24384;51.988;4.644;2022-07-30T02:41:21;12.18;;;5.50;;
38629;SDS011;24384;51.988;4.644;2022-07-30T02:43:48;15.68;;;5.05;;
38629;SDS011;24384;51.988;4.644;2022-07-30T02:46:15;13.05;;;5.47;;
38629;SDS011;24384;51.988;4.644;2022-07-30T02:48:42;8.32;;;4.85;;
38629;SDS011;24384;51.988;4.644;2022-07-30T02:51:11;12.85;;;5.40;;
38629;SDS011;24384;51.988;4.644;2022-07-30T02:53:39;8.43;;;5.18;;
38629;SDS011;24384;51.988;4.644;2022-07-30T02:56:09;11.27;;;5.03;;
38629;SDS011;24384;51.988;4.644;2022-07-30T02:58:36;9.48;;;5.03;;
38629;SDS011;24384;51.988;4.644;2022-07-30T03:01:03;10.13;;;4.65;;
38629;SDS011;24384;51.988;4.644;2022-07-30T03:03:30;9.40;;;4.80;;
38629;SDS011;24384;51.988;4.644;2022-07-30T03:05:56;10.65;;;5.28;;
38629;SDS011;24384;51.988;4.644;2022-07-30T03:08:23;8.82;;;5.55;;
38629;SDS011;24384;51.988;4.644;2022-07-30T03:10:50;12.23;;;5.43;;
38629;SDS011;24384;51.988;4.644;2022-07-30T03:13:19;8.50;;;5.60;;
38629;SDS011;24384;51.988;4.644;2022-07-30T03:15:46;11.00;;;5.35;;
38629;SDS011;24384;51.988;4.644;2022-07-30T03:18:15;9.68;;;5.00;;
38629;SDS011;24384;51.988;4.644;2022-07-30T03:20:46;10.27;;;4.85;;
38629;SDS011;24384;51.988;4.644;2022-07-30T03:23:17;7.35;;;4.93;;
38629;SDS011;24384;51.988;4.644;2022-07-30T03:25:48;8.38;;;4.93;;
38629;SDS011;24384;51.988;4.644;2022-07-30T03:28:18;6.45;;;4.78;;
38629;SDS011;24384;51.988;4.644;2022-07-30T03:30:46;9.80;;;5.18;;
38629;SDS011;24384;51.988;4.644;2022-07-30T03:33:11;13.63;;;5.68;;
38629;SDS011;24384;51.988;4.644;2022-07-30T03:35:40;9.65;;;5.60;;
38629;SDS011;24384;51.988;4.644;2022-07-30T03:38:09;14.65;;;5.32;;
38629;SDS011;24384;51.988;4.644;2022-07-30T03:40:39;10.43;;;5.57;;
38629;SDS011;24384;51.988;4.644;2022-07-30T03:43:07;17.27;;;6.05;;
38629;SDS011;24384;51.988;4.644;2022-07-30T03:45:37;10.60;;;6.45;;
38629;SDS011;24384;51.988;4.644;2022-07-30T03:48:08;9.10;;;5.68;;
38629;SDS011;24384;51.988;4.644;2022-07-30T03:50:37;12.45;;;6.10;;
38629;SDS011;24384;51.988;4.644;2022-07-30T03:53:05;10.05;;;6.40;;
38629;SDS011;24384;51.988;4.644;2022-07-30T03:55:31;8.55;;;6.40;;
38629;SDS011;24384;51.988;4.644;2022-07-30T03:57:57;12.43;;;6.68;;
38629;SDS011;24384;51.988;4.644;2022-07-30T04:00:24;13.15;;;6.40;;
38629;SDS011;24384;51.988;4.644;2022-07-30T04:02:51;9.15;;;6.47;;
38629;SDS011;24384;51.988;4.644;2022-07-30T04:05:17;13.48;;;6.80;;
38629;SDS011;24384;51.988;4.644;2022-07-30T04:07:42;14.25;;;5.75;;
38629;SDS011;24384;51.988;4.644;2022-07-30T04:10:08;9.65;;;6.18;;
38629;SDS011;24384;51.988;4.644;2022-07-30T04:12:34;10.68;;;6.10;;
38629;SDS011;24384;51.988;4.644;2022-07-30T04:15:00;11.95;;;5.70;;
38629;SDS011;24384;51.988;4.644;2022-07-30T04:17:28;13.65;;;6.07;;
38629;SDS011;24384;51.988;4.644;2022-07-30T04:20:00;9.32;;;5.82;;
38629;SDS011;24384;51.988;4.644;2022-07-30T04:24:59;13.25;;;6.60;;
38629;SDS011;24384;51.988;4.644;2022-07-30T04:27:26;13.30;;;6.32;;
38629;SDS011;24384;51.988;4.644;2022-07-30T04:29:52;18.23;;;5.72;;
38629;SDS011;24384;51.988;4.644;2022-07-30T04:32:18;10.95;;;6.45;;
38629;SDS011;24384;51.988;4.644;2022-07-30T04:34:44;12.88;;;6.03;;
38629;SDS011;24384;51.988;4.644;2022-07-30T04:37:14;10.15;;;6.03;;
38629;SDS011;24384;51.988;4.644;2022-07-30T04:39:42;15.02;;;6.50;;
38629;SDS011;24384;51.988;4.644;2022-07-30T04:42:07;10.07;;;6.53;;
38629;SDS011;24384;51.988;4.644;2022-07-30T04:44:33;14.20;;;7.13;;
38629;SDS011;24384;51.988;4.644;2022-07-30T04:46:58;13.30;;;6.40;;
38629;SDS011;24384;51.988;4.644;2022-07-30T04:49:24;13.65;;;6.55;;
38629;SDS011;24384;51.988;4.644;2022-07-30T04:51:51;12.25;;;6.43;;
38629;SDS011;24384;51.988;4.644;2022-07-30T04:54:18;15.90;;;6.70;;
38629;SDS011;24384;51.988;4.644;2022-07-30T04:56:45;11.60;;;6.65;;
38629;SDS011;24384;51.988;4.644;2022-07-30T04:59:11;8.98;;;6.65;;
38629;SDS011;24384;51.988;4.644;2022-07-30T05:01:38;12.00;;;6.40;;
38629;SDS011;24384;51.988;4.644;2022-07-30T05:04:06;9.88;;;5.30;;
38629;SDS011;24384;51.988;4.644;2022-07-30T05:06:33;10.45;;;5.97;;
38629;SDS011;24384;51.988;4.644;2022-07-30T05:09:00;9.25;;;5.80;;
38629;SDS011;24384;51.988;4.644;2022-07-30T05:11:26;13.85;;;6.43;;
38629;SDS011;24384;51.988;4.644;2022-07-30T05:13:51;11.38;;;6.15;;
38629;SDS011;24384;51.988;4.644;2022-07-30T05:16:17;9.65;;;5.72;;
38629;SDS011;24384;51.988;4.644;2022-07-30T05:18:42;13.20;;;5.55;;
38629;SDS011;24384;51.988;4.644;2022-07-30T05:21:09;13.60;;;6.10;;
38629;SDS011;24384;51.988;4.644;2022-07-30T05:23:34;11.85;;;5.10;;
38629;SDS011;24384;51.988;4.644;2022-07-30T05:26:00;10.27;;;5.03;;
38629;SDS011;24384;51.988;4.644;2022-07-30T05:28:26;11.38;;;5.13;;
38629;SDS011;24384;51.988;4.644;2022-07-30T05:30:52;16.30;;;5.55;;
38629;SDS011;24384;51.988;4.644;2022-07-30T05:33:18;11.82;;;5.47;;
38629;SDS011;24384;51.988;4.644;2022-07-30T05:35:44;11.10;;;5.05;;
38629;SDS011;24384;51.988;4.644;2022-07-30T05:38:10;9.60;;;4.85;;
38629;SDS011;24384;51.988;4.644;2022-07-30T05:40:36;10.82;;;4.78;;
38629;SDS011;24384;51.988;4.644;2022-07-30T05:43:01;8.40;;;5.18;;
38629;SDS011;24384;51.988;4.644;2022-07-30T05:45:27;10.75;;;4.85;;
38629;SDS011;24384;51.988;4.644;2022-07-30T05:47:52;9.95;;;5.05;;
38629;SDS011;24384;51.988;4.644;2022-07-30T05:50:17;8.45;;;4.47;;
38629;SDS011;24384;51.988;4.644;2022-07-30T05:52:43;8.20;;;3.67;;
38629;SDS011;24384;51.988;4.644;2022-07-30T05:55:08;11.68;;;4.47;;
38629;SDS011;24384;51.988;4.644;2022-07-30T05:57:35;10.10;;;4.03;;
38629;SDS011;24384;51.988;4.644;2022-07-30T06:00:00;11.95;;;4.15;;
38629;SDS011;24384;51.988;4.644;2022-07-30T06:02:28;12.05;;;4.65;;
38629;SDS011;24384;51.988;4.644;2022-07-30T06:04:53;8.88;;;4.68;;
38629;SDS011;24384;51.988;4.644;2022-07-30T06:07:18;9.73;;;4.68;;
38629;SDS011;24384;51.988;4.644;2022-07-30T06:09:44;12.05;;;5.28;;
38629;SDS011;24384;51.988;4.644;2022-07-30T06:12:09;11.20;;;4.90;;
38629;SDS011;24384;51.988;4.644;2022-07-30T06:14:35;7.60;;;4.28;;
38629;SDS011;24384;51.988;4.644;2022-07-30T06:17:00;9.45;;;4.30;;
38629;SDS011;24384;51.988;4.644;2022-07-30T06:19:26;11.10;;;4.00;;
38629;SDS011;24384;51.988;4.644;2022-07-30T06:21:51;8.02;;;3.40;;
38629;SDS011;24384;51.988;4.644;2022-07-30T06:24:16;12.93;;;4.10;;
38629;SDS011;24384;51.988;4.644;2022-07-30T06:26:42;8.25;;;3.70;;
38629;SDS011;24384;51.988;4.644;2022-07-30T06:29:07;6.72;;;2.10;;
38629;SDS011;24384;51.988;4.644;2022-07-30T06:31:33;7.35;;;2.55;;
38629;SDS011;24384;51.988;4.644;2022-07-30T06:33:59;10.07;;;2.28;;
38629;SDS011;24384;51.988;4.644;2022-07-30T06:36:24;7.25;;;2.35;;
38629;SDS011;24384;51.988;4.644;2022-07-30T06:38:50;6.53;;;2.05;;
38629;SDS011;24384;51.988;4.644;2022-07-30T06:41:15;9.43;;;2.00;;
38629;SDS011;24384;51.988;4.644;2022-07-30T06:43:40;4.80;;;2.00;;
38629;SDS011;24384;51.988;4.644;2022-07-30T06:46:06;6.22;;;2.00;;
38629;SDS011;24384;51.988;4.644;2022-07-30T06:48:31;7.28;;;1.80;;
38629;SDS011;24384;51.988;4.644;2022-07-30T06:50:57;6.65;;;1.73;;
38629;SDS011;24384;51.988;4.644;2022-07-30T06:53:22;8.18;;;1.70;;
38629;SDS011;24384;51.988;4.644;2022-07-30T06:55:48;5.47;;;1.88;;
38629;SDS011;24384;51.988;4.644;2022-07-30T06:58:14;4.93;;;1.55;;
38629;SDS011;24384;51.988;4.644;2022-07-30T07:00:40;4.57;;;1.67;;
38629;SDS011;24384;51.988;4.644;2022-07-30T07:03:07;5.10;;;1.75;;
38629;SDS011;24384;51.988;4.644;2022-07-30T07:05:32;4.35;;;1.13;;
38629;SDS011;24384;51.988;4.644;2022-07-30T07:07:57;6.20;;;1.52;;
38629;SDS011;24384;51.988;4.644;2022-07-30T07:10:23;5.18;;;1.60;;
38629;SDS011;24384;51.988;4.644;2022-07-30T07:12:48;4.90;;;1.55;;
38629;SDS011;24384;51.988;4.644;2022-07-30T07:15:14;5.47;;;1.30;;
38629;SDS011;24384;51.988;4.644;2022-07-30T07:17:39;4.63;;;1.50;;
38629;SDS011;24384;51.988;4.644;2022-07-30T07:20:05;6.35;;;1.30;;
38629;SDS011;24384;51.988;4.644;2022-07-30T07:22:31;6.07;;;1.60;;
38629;SDS011;24384;51.988;4.644;2022-07-30T07:24:57;6.10;;;1.20;;
38629;SDS011;24384;51.988;4.644;2022-07-30T07:27:22;4.65;;;1.45;;
38629;SDS011;24384;51.988;4.644;2022-07-30T07:32:45;5.57;;;1.52;;
38629;SDS011;24384;51.988;4.644;2022-07-30T07:35:11;6.13;;;1.40;;
38629;SDS011;24384;51.988;4.644;2022-07-30T07:37:37;5.35;;;1.60;;
38629;SDS011;24384;51.988;4.644;2022-07-30T07:40:04;8.90;;;1.50;;
38629;SDS011;24384;51.988;4.644;2022-07-30T07:42:30;4.97;;;1.40;;
38629;SDS011;24384;51.988;4.644;2022-07-30T07:44:56;5.53;;;1.40;;
38629;SDS011;24384;51.988;4.644;2022-07-30T07:47:21;6.15;;;1.70;;
38629;SDS011;24384;51.988;4.644;2022-07-30T07:49:47;5.40;;;1.77;;
38629;SDS011;24384;51.988;4.644;2022-07-30T07:52:12;4.50;;;1.23;;
38629;SDS011;24384;51.988;4.644;2022-07-30T07:54:37;4.63;;;1.45;;
38629;SDS011;24384;51.988;4.644;2022-07-30T07:57:03;4.50;;;1.50;;
38629;SDS011;24384;51.988;4.644;2022-07-30T07:59:31;4.10;;;1.20;;
38629;SDS011;24384;51.988;4.644;2022-07-30T08:01:57;5.78;;;1.52;;
38629;SDS011;24384;51.988;4.644;2022-07-30T08:04:23;7.47;;;1.60;;
38629;SDS011;24384;51.988;4.644;2022-07-30T08:06:48;4.18;;;1.30;;
38629;SDS011;24384;51.988;4.644;2022-07-30T08:09:13;4.40;;;1.52;;
38629;SDS011;24384;51.988;4.644;2022-07-30T08:11:39;8.68;;;1.25;;
38629;SDS011;24384;51.988;4.644;2022-07-30T08:14:04;4.65;;;1.10;;
38629;SDS011;24384;51.988;4.644;2022-07-30T08:16:29;5.07;;;1.33;;
38629;SDS011;24384;51.988;4.644;2022-07-30T08:18:55;6.78;;;1.88;;
38629;SDS011;24384;51.988;4.644;2022-07-30T08:21:20;7.82;;;1.27;;
38629;SDS011;24384;51.988;4.644;2022-07-30T08:23:46;6.15;;;1.17;;
38629;SDS011;24384;51.988;4.644;2022-07-30T08:26:11;4.60;;;1.10;;
38629;SDS011;24384;51.988;4.644;2022-07-30T08:28:36;5.65;;;1.00;;
38629;SDS011;24384;51.988;4.644;2022-07-30T08:31:02;5.63;;;1.08;;
38629;SDS011;24384;51.988;4.644;2022-07-30T08:33:28;6.22;;;1.70;;
38629;SDS011;24384;51.988;4.644;2022-07-30T08:35:53;5.05;;;1.20;;
38629;SDS011;24384;51.988;4.644;2022-07-30T08:38:18;5.15;;;1.42;;
38629;SDS011;24384;51.988;4.644;2022-07-30T08:40:44;5.38;;;1.20;;
38629;SDS011;24384;51.988;4.644;2022-07-30T08:43:10;5.65;;;1.38;;
38629;SDS011;24384;51.988;4.644;2022-07-30T08:45:36;3.50;;;1.02;;
38629;SDS011;24384;51.988;4.644;2022-07-30T08:48:05;4.47;;;1.52;;
38629;SDS011;24384;51.988;4.644;2022-07-30T08:50:32;3.50;;;1.08;;
38629;SDS011;24384;51.988;4.644;2022-07-30T08:53:00;3.97;;;1.10;;
38629;SDS011;24384;51.988;4.644;2022-07-30T08:55:26;3.67;;;1.17;;
38629;SDS011;24384;51.988;4.644;2022-07-30T08:57:51;4.95;;;0.93;;
38629;SDS011;24384;51.988;4.644;2022-07-30T09:00:17;3.35;;;1.30;;
38629;SDS011;24384;51.988;4.644;2022-07-30T09:02:43;8.27;;;1.40;;
38629;SDS011;24384;51.988;4.644;2022-07-30T09:05:09;3.08;;;1.15;;
38629;SDS011;24384;51.988;4.644;2022-07-30T09:07:36;3.78;;;1.00;;
38629;SDS011;24384;51.988;4.644;2022-07-30T09:10:05;4.15;;;1.13;;
38629;SDS011;24384;51.988;4.644;2022-07-30T09:15:09;6.07;;;1.10;;
38629;SDS011;24384;51.988;4.644;2022-07-30T09:17:45;4.65;;;1.20;;
38629;SDS011;24384;51.988;4.644;2022-07-30T09:20:14;6.03;;;1.25;;
38629;SDS011;24384;51.988;4.644;2022-07-30T09:22:43;8.05;;;1.50;;
38629;SDS011;24384;51.988;4.644;2022-07-30T09:25:10;5.33;;;1.10;;
38629;SDS011;24384;51.988;4.644;2022-07-30T09:28:09;6.95;;;1.30;;
38629;SDS011;24384;51.988;4.644;2022-07-30T09:36:02;4.70;;;1.30;;
38629;SDS011;24384;51.988;4.644;2022-07-30T09:38:40;4.63;;;1.20;;
38629;SDS011;24384;51.988;4.644;2022-07-30T09:41:12;4.78;;;1.33;;
38629;SDS011;24384;51.988;4.644;2022-07-30T09:43:45;6.55;;;1.27;;
38629;SDS011;24384;51.988;4.644;2022-07-30T09:46:12;5.13;;;1.15;;
38629;SDS011;24384;51.988;4.644;2022-07-30T09:48:38;3.75;;;1.17;;
38629;SDS011;24384;51.988;4.644;2022-07-30T09:51:04;3.28;;;1.30;;
38629;SDS011;24384;51.988;4.644;2022-07-30T09:53:29;4.50;;;1.42;;
38629;SDS011;24384;51.988;4.644;2022-07-30T09:55:56;5.32;;;1.40;;
38629;SDS011;24384;51.988;4.644;2022-07-30T09:58:22;7.55;;;1.67;;
38629;SDS011;24384;51.988;4.644;2022-07-30T10:00:47;4.85;;;1.20;;
38629;SDS011;24384;51.988;4.644;2022-07-30T10:03:22;3.75;;;1.15;;
38629;SDS011;24384;51.988;4.644;2022-07-30T10:05:53;3.85;;;1.10;;
38629;SDS011;24384;51.988;4.644;2022-07-30T10:11:09;5.10;;;1.42;;
38629;SDS011;24384;51.988;4.644;2022-07-30T10:13:36;5.93;;;1.30;;
38629;SDS011;24384;51.988;4.644;2022-07-30T10:16:03;5.60;;;1.10;;
38629;SDS011;24384;51.988;4.644;2022-07-30T10:18:29;3.92;;;1.17;;
38629;SDS011;24384;51.988;4.644;2022-07-30T10:20:55;4.30;;;1.20;;
38629;SDS011;24384;51.988;4.644;2022-07-30T10:23:21;3.00;;;0.90;;
38629;SDS011;24384;51.988;4.644;2022-07-30T10:25:48;3.45;;;0.95;;
38629;SDS011;24384;51.988;4.644;2022-07-30T10:28:15;4.22;;;1.38;;
38629;SDS011;24384;51.988;4.644;2022-07-30T10:30:41;3.22;;;1.10;;
38629;SDS011;24384;51.988;4.644;2022-07-30T10:33:07;5.07;;;1.55;;
38629;SDS011;24384;51.988;4.644;2022-07-30T10:35:34;6.82;;;1.55;;
38629;SDS011;24384;51.988;4.644;2022-07-30T10:38:00;6.22;;;1.75;;
38629;SDS011;24384;51.988;4.644;2022-07-30T10:48:31;6.22;;;1.38;;
38629;SDS011;24384;51.988;4.644;2022-07-30T10:50:57;4.70;;;1.27;;
38629;SDS011;24384;51.988;4.644;2022-07-30T10:53:37;4.05;;;1.35;;
38629;SDS011;24384;51.988;4.644;2022-07-30T10:56:18;5.32;;;1.10;;
38629;SDS011;24384;51.988;4.644;2022-07-30T11:06:46;5.90;;;1.60;;
38629;SDS011;24384;51.988;4.644;2022-07-30T11:12:04;5.53;;;1.50;;
38629;SDS011;24384;51.988;4.644;2022-07-30T11:17:12;7.97;;;1.50;;
38629;SDS011;24384;51.988;4.644;2022-07-30T11:22:31;3.88;;;1.25;;
38629;SDS011;24384;51.988;4.644;2022-07-30T11:27:54;6.18;;;1.35;;
38629;SDS011;24384;51.988;4.644;2022-07-30T11:32:46;6.35;;;1.73;;
38629;SDS011;24384;51.988;4.644;2022-07-30T11:38:12;6.40;;;1.60;;
38629;SDS011;24384;51.988;4.644;2022-07-30T11:43:16;4.40;;;1.10;;
38629;SDS011;24384;51.988;4.644;2022-07-30T11:45:42;6.32;;;1.40;;
38629;SDS011;24384;51.988;4.644;2022-07-30T11:48:10;3.90;;;1.30;;
38629;SDS011;24384;51.988;4.644;2022-07-30T11:50:38;7.82;;;1.27;;
38629;SDS011;24384;51.988;4.644;2022-07-30T11:53:05;4.43;;;1.08;;
38629;SDS011;24384;51.988;4.644;2022-07-30T11:55:36;7.70;;;1.40;;
38629;SDS011;24384;51.988;4.644;2022-07-30T11:58:04;7.33;;;1.30;;
38629;SDS011;24384;51.988;4.644;2022-07-30T12:00:41;4.43;;;2.00;;
38629;SDS011;24384;51.988;4.644;2022-07-30T12:03:12;4.40;;;1.25;;
38629;SDS011;24384;51.988;4.644;2022-07-30T12:05:40;7.05;;;1.30;;
38629;SDS011;24384;51.988;4.644;2022-07-30T12:08:07;5.50;;;1.30;;
38629;SDS011;24384;51.988;4.644;2022-07-30T12:10:34;6.57;;;1.55;;
38629;SDS011;24384;51.988;4.644;2022-07-30T12:13:12;5.15;;;1.77;;
38629;SDS011;24384;51.988;4.644;2022-07-30T12:15:49;5.25;;;2.10;;
38629;SDS011;24384;51.988;4.644;2022-07-30T12:18:27;5.15;;;1.40;;
38629;SDS011;24384;51.988;4.644;2022-07-30T12:20:58;5.90;;;1.58;;
38629;SDS011;24384;51.988;4.644;2022-07-30T12:23:25;5.97;;;1.50;;
38629;SDS011;24384;51.988;4.644;2022-07-30T12:25:51;5.93;;;1.33;;
38629;SDS011;24384;51.988;4.644;2022-07-30T12:28:21;5.55;;;1.27;;
38629;SDS011;24384;51.988;4.644;2022-07-30T12:30:48;7.78;;;1.98;;
38629;SDS011;24384;51.988;4.644;2022-07-30T12:33:15;10.75;;;1.98;;
38629;SDS011;24384;51.988;4.644;2022-07-30T12:35:51;4.60;;;1.90;;
38629;SDS011;24384;51.988;4.644;2022-07-30T12:38:18;5.30;;;1.80;;
38629;SDS011;24384;51.988;4.644;2022-07-30T12:41:01;10.80;;;2.05;;
38629;SDS011;24384;51.988;4.644;2022-07-30T12:43:40;8.10;;;1.70;;
38629;SDS011;24384;51.988;4.644;2022-07-30T12:46:20;6.63;;;1.92;;
38629;SDS011;24384;51.988;4.644;2022-07-30T12:48:57;9.90;;;2.20;;
38629;SDS011;24384;51.988;4.644;2022-07-30T12:51:30;7.30;;;2.03;;
38629;SDS011;24384;51.988;4.644;2022-07-30T12:53:57;6.13;;;1.88;;
38629;SDS011;24384;51.988;4.644;2022-07-30T12:56:32;8.82;;;1.98;;
38629;SDS011;24384;51.988;4.644;2022-07-30T12:58:58;6.50;;;1.70;;
38629;SDS011;24384;51.988;4.644;2022-07-30T13:04:09;10.68;;;1.90;;
38629;SDS011;24384;51.988;4.644;2022-07-30T13:06:35;5.70;;;2.00;;
38629;SDS011;24384;51.988;4.644;2022-07-30T13:09:02;6.70;;;2.20;;
38629;SDS011;24384;51.988;4.644;2022-07-30T13:11:38;7.75;;;1.70;;
38629;SDS011;24384;51.988;4.644;2022-07-30T13:14:06;7.22;;;1.75;;
38629;SDS011;24384;51.988;4.644;2022-07-30T13:16:32;6.07;;;1.77;;
38629;SDS011;24384;51.988;4.644;2022-07-30T13:19:01;5.03;;;1.35;;
38629;SDS011;24384;51.988;4.644;2022-07-30T13:21:27;4.53;;;1.35;;
38629;SDS011;24384;51.988;4.644;2022-07-30T13:23:52;8.68;;;1.70;;
38629;SDS011;24384;51.988;4.644;2022-07-30T13:26:18;5.00;;;1.45;;
38629;SDS011;24384;51.988;4.644;2022-07-30T13:28:43;6.18;;;1.25;;
38629;SDS011;24384;51.988;4.644;2022-07-30T13:31:10;5.32;;;1.50;;
38629;SDS011;24384;51.988;4.644;2022-07-30T13:33:36;8.38;;;1.70;;
38629;SDS011;24384;51.988;4.644;2022-07-30T13:36:02;8.77;;;1.60;;
38629;SDS011;24384;51.988;4.644;2022-07-30T13:38:27;6.35;;;1.50;;
38629;SDS011;24384;51.988;4.644;2022-07-30T13:40:53;8.38;;;1.25;;
38629;SDS011;24384;51.988;4.644;2022-07-30T13:43:21;9.43;;;1.58;;
38629;SDS011;24384;51.988;4.644;2022-07-30T13:45:47;9.93;;;1.90;;
38629;SDS011;24384;51.988;4.644;2022-07-30T13:48:13;10.98;;;1.40;;
38629;SDS011;24384;51.988;4.644;2022-07-30T13:50:39;9.77;;;1.80;;
38629;SDS011;24384;51.988;4.644;2022-07-30T13:53:05;7.43;;;1.58;;
38629;SDS011;24384;51.988;4.644;2022-07-30T13:55:31;4.88;;;1.50;;
38629;SDS011;24384;51.988;4.644;2022-07-30T13:57:56;10.60;;;1.65;;
38629;SDS011;24384;51.988;4.644;2022-07-30T14:00:22;9.25;;;1.45;;
38629;SDS011;24384;51.988;4.644;2022-07-30T14:02:48;7.93;;;1.40;;
38629;SDS011;24384;51.988;4.644;2022-07-30T14:05:14;5.80;;;1.38;;
38629;SDS011;24384;51.988;4.644;2022-07-30T14:07:40;9.02;;;1.67;;
38629;SDS011;24384;51.988;4.644;2022-07-30T14:10:05;6.53;;;1.40;;
38629;SDS011;24384;51.988;4.644;2022-07-30T14:12:32;5.05;;;1.40;;
38629;SDS011;24384;51.988;4.644;2022-07-30T14:15:01;7.53;;;1.85;;
38629;SDS011;24384;51.988;4.644;2022-07-30T14:17:28;6.15;;;1.50;;
38629;SDS011;24384;51.988;4.644;2022-07-30T14:19:56;6.85;;;1.60;;
38629;SDS011;24384;51.988;4.644;2022-07-30T14:22:21;5.50;;;1.73;;
38629;SDS011;24384;51.988;4.644;2022-07-30T14:24:47;4.55;;;1.40;;
38629;SDS011;24384;51.988;4.644;2022-07-30T14:27:14;11.13;;;1.58;;
38629;SDS011;24384;51.988;4.644;2022-07-30T14:29:45;9.80;;;1.70;;
38629;SDS011;24384;51.988;4.644;2022-07-30T14:32:11;5.88;;;1.50;;
38629;SDS011;24384;51.988;4.644;2022-07-30T14:34:37;4.55;;;1.33;;
38629;SDS011;24384;51.988;4.644;2022-07-30T14:37:02;8.15;;;1.52;;
38629;SDS011;24384;51.988;4.644;2022-07-30T14:39:28;6.13;;;1.70;;
38629;SDS011;24384;51.988;4.644;2022-07-30T14:41:54;10.57;;;1.63;;
38629;SDS011;24384;51.988;4.644;2022-07-30T14:44:20;7.50;;;1.80;;
38629;SDS011;24384;51.988;4.644;2022-07-30T14:46:46;3.45;;;1.48;;
38629;SDS011;24384;51.988;4.644;2022-07-30T14:49:12;7.90;;;1.55;;
38629;SDS011;24384;51.988;4.644;2022-07-30T14:51:39;6.88;;;2.00;;
38629;SDS011;24384;51.988;4.644;2022-07-30T14:54:05;6.43;;;1.63;;
38629;SDS011;24384;51.988;4.644;2022-07-30T14:56:30;8.80;;;2.63;;
38629;SDS011;24384;51.988;4.644;2022-07-30T14:58:56;5.95;;;1.48;;
38629;SDS011;24384;51.988;4.644;2022-07-30T15:01:22;5.38;;;1.60;;
38629;SDS011;24384;51.988;4.644;2022-07-30T15:03:48;4.38;;;1.50;;
38629;SDS011;24384;51.988;4.644;2022-07-30T15:06:13;4.45;;;1.55;;
38629;SDS011;24384;51.988;4.644;2022-07-30T15:08:41;3.83;;;1.17;;
38629;SDS011;24384;51.988;4.644;2022-07-30T15:11:07;7.35;;;1.65;;
38629;SDS011;24384;51.988;4.644;2022-07-30T15:13:33;5.45;;;1.52;;
38629;SDS011;24384;51.988;4.644;2022-07-30T15:15:59;4.65;;;1.83;;
38629;SDS011;24384;51.988;4.644;2022-07-30T15:18:24;5.95;;;1.60;;
38629;SDS011;24384;51.988;4.644;2022-07-30T15:20:49;9.20;;;1.58;;
38629;SDS011;24384;51.988;4.644;2022-07-30T15:23:15;7.90;;;1.95;;
38629;SDS011;24384;51.988;4.644;2022-07-30T15:25:40;9.75;;;1.73;;
38629;SDS011;24384;51.988;4.644;2022-07-30T15:28:06;7.05;;;1.90;;
38629;SDS011;24384;51.988;4.644;2022-07-30T15:30:32;7.00;;;1.40;;
38629;SDS011;24384;51.988;4.644;2022-07-30T15:32:57;5.53;;;1.63;;
38629;SDS011;24384;51.988;4.644;2022-07-30T15:35:23;6.90;;;1.73;;
38629;SDS011;24384;51.988;4.644;2022-07-30T15:37:48;10.00;;;1.55;;
38629;SDS011;24384;51.988;4.644;2022-07-30T15:40:14;5.25;;;1.90;;
38629;SDS011;24384;51.988;4.644;2022-07-30T15:42:39;6.18;;;1.63;;